EGPY weather

CLOSED Dounreay/Thurso Airport
Thurso, Scotland, United Kingdom

Public forecast

Using degrees Celsius for public forecast. Weather courtesy of forecast.io.

Closest aviation weather report (METAR) to Dounreay/Thurso Airport

Closest report is Wick Airport, 21.2 nm (39.3 km) ESE. Retrieved 2019/12/15 07:20 UTC (19 minutes ago):

EGPC 150720Z AUTO 21004KT 9999 NCD 00/M02 Q0975

Closest aviation forecast (TAF) to Dounreay/Thurso Airport

Closest forecast is RAF Lossiemouth, 54.2 nm (100.3 km) SSE. Retrieved 2019/12/15 09:21 UTC (0 seconds ago):

TAF EGQS 150713Z 1509/1603 24008KT 9999 FEW040